Terminal Aerodrome Forecast
Issued by NWS

Home | Current Version | Previous Version | Text Only | Print | Product List | Glossary On
Versions: 1 2 3 4 5 6 7 8 9 10 11 12 13 14 15 16 17
000
FTAK31 PAJN 231143
TAFAJN
TAF
PAJN 231143Z 2312/2412 30003KT 6SM -SHRA BR SCT006 BKN035 OVC050
      TEMPO 2312/2315 00000KT 3SM BR FEW003 BKN006 OVC035
     FM231500 29006KT 5SM BR BKN009 BKN035
      TEMPO 2315/2317 2SM BR BKN003 OVC009
     FM231900 25008KT P6SM FEW015 SCT050=

USA.gov is the U.S. government's official web portal to all federal, state and local government web resources and services.